createdAt,value
2022-07-29T00:04:43.721Z,95726.13
2022-07-29T00:09:51.820Z,95731.44
2022-07-29T00:14:55.753Z,95728.88
2022-07-29T00:19:57.402Z,95738.50
2022-07-29T00:24:59.195Z,95728.28
2022-07-29T00:30:00.880Z,95727.25
2022-07-29T00:35:21.238Z,95725.69
2022-07-29T00:40:23.618Z,95730.22
2022-07-29T00:45:25.587Z,95718.00
2022-07-29T00:50:28.019Z,95723.03
2022-07-29T00:55:30.091Z,95714.06
2022-07-29T01:00:31.926Z,95703.88
2022-07-29T01:05:50.666Z,95689.34
2022-07-29T01:10:55.113Z,95694.66
2022-07-29T01:16:03.967Z,95688.50
2022-07-29T01:21:14.609Z,95690.22
2022-07-29T01:26:21.959Z,95683.28
2022-07-29T01:31:32.831Z,95673.84
2022-07-29T01:36:44.517Z,95665.69
2022-07-29T01:42:02.591Z,95656.28
2022-07-29T01:47:12.587Z,95658.47
2022-07-29T01:52:24.642Z,95652.31
2022-07-29T01:57:30.218Z,95641.38
2022-07-29T02:02:36.067Z,95639.56
2022-07-29T02:07:38.881Z,95629.06
2022-07-29T02:12:43.579Z,95627.25
2022-07-29T02:18:02.158Z,95625.41
2022-07-29T02:23:04.540Z,95633.22
2022-07-29T02:28:09.289Z,95631.88
2022-07-29T02:33:14.508Z,95629.31
2022-07-29T02:38:36.392Z,95638.63
2022-07-29T02:43:38.158Z,95636.50
2022-07-29T02:48:53.005Z,95643.53
2022-07-29T02:53:57.741Z,95652.88
2022-07-29T02:59:04.063Z,95647.94
2022-07-29T03:04:06.434Z,95644.09
2022-07-29T03:09:13.231Z,95639.50
2022-07-29T03:14:17.816Z,95648.06
2022-07-29T03:19:21.408Z,95642.19
2022-07-29T03:24:34.266Z,95652.28
2022-07-29T03:29:36.022Z,95644.88
2022-07-29T03:34:38.808Z,95645.81
2022-07-29T03:39:42.460Z,95659.97
2022-07-29T03:44:48.577Z,95654.88
2022-07-29T03:49:53.509Z,95663.72
2022-07-29T03:54:55.282Z,95653.53
2022-07-29T03:59:57.742Z,95665.94
2022-07-29T04:04:59.911Z,95675.53
2022-07-29T04:10:01.630Z,95688.72
2022-07-29T04:15:07.016Z,95695.91
2022-07-29T04:20:09.491Z,95696.84
2022-07-29T04:25:11.256Z,95704.47
2022-07-29T04:30:13.352Z,95693.97
2022-07-29T04:35:15.068Z,95689.28
2022-07-29T04:40:16.846Z,95699.44
2022-07-29T04:45:22.512Z,95698.56
2022-07-29T04:50:24.698Z,95697.47
2022-07-29T04:55:26.511Z,95702.75
2022-07-29T05:00:33.250Z,95693.44
2022-07-29T05:05:35.452Z,95697.59
2022-07-29T05:10:39.049Z,95697.41
2022-07-29T05:15:40.852Z,95700.78
2022-07-29T05:20:42.648Z,95708.19
2022-07-29T05:25:45.002Z,95715.03
2022-07-29T05:30:46.917Z,95717.50
2022-07-29T05:35:48.591Z,95709.16
2022-07-29T05:40:50.353Z,95705.09
2022-07-29T05:45:52.004Z,95704.19
2022-07-29T05:50:54.428Z,95707.22
2022-07-29T05:55:56.033Z,95705.06
2022-07-29T06:01:01.740Z,95699.31
2022-07-29T06:06:03.728Z,95707.00
2022-07-29T06:11:05.989Z,95699.72
2022-07-29T06:16:07.976Z,95705.59
2022-07-29T06:21:10.913Z,95704.34
2022-07-29T06:26:12.626Z,95702.34
2022-07-29T06:31:14.429Z,95721.84
2022-07-29T06:36:16.568Z,95728.94
2022-07-29T06:41:19.449Z,95724.34
2022-07-29T06:46:22.470Z,95735.53
2022-07-29T06:51:24.375Z,95738.84
2022-07-29T06:56:26.358Z,95751.91
2022-07-29T07:01:28.010Z,95748.38
2022-07-29T07:06:29.656Z,95759.53
2022-07-29T07:11:31.626Z,95754.38
2022-07-29T07:16:33.672Z,95756.50
2022-07-29T07:21:41.541Z,95744.44
2022-07-29T07:26:43.125Z,95748.03
2022-07-29T07:31:44.772Z,95750.25
2022-07-29T07:36:46.421Z,95744.88
2022-07-29T07:41:48.301Z,95729.91
2022-07-29T07:46:50.078Z,95732.44
2022-07-29T07:51:53.519Z,95733.19
2022-07-29T07:56:55.533Z,95733.78
2022-07-29T08:01:57.768Z,95733.56
2022-07-29T08:07:00.550Z,95733.34
2022-07-29T08:12:04.951Z,95742.75
2022-07-29T08:17:07.543Z,95736.63
2022-07-29T08:22:09.200Z,95740.88
2022-07-29T08:27:33.360Z,95736.25
2022-07-29T08:32:52.560Z,95735.78
2022-07-29T08:37:55.036Z,95747.34
2022-07-29T08:42:56.686Z,95747.69
2022-07-29T08:47:58.483Z,95749.56
2022-07-29T08:53:00.764Z,95747.88
2022-07-29T08:58:02.971Z,95742.31
2022-07-29T09:03:05.928Z,95736.38
2022-07-29T09:08:07.961Z,95733.00
2022-07-29T09:13:10.178Z,95744.28
2022-07-29T09:18:20.473Z,95737.50
2022-07-29T09:23:32.492Z,95743.75
2022-07-29T09:28:34.058Z,95743.44
2022-07-29T09:33:36.669Z,95731.28
2022-07-29T09:38:38.770Z,95730.63
2022-07-29T09:43:41.557Z,95729.66
2022-07-29T09:48:43.363Z,95723.88
2022-07-29T09:53:44.997Z,95717.84
2022-07-29T09:58:46.643Z,95717.38
2022-07-29T10:03:53.069Z,95712.31
2022-07-29T10:09:07.613Z,95709.28
2022-07-29T10:14:09.488Z,95707.81
2022-07-29T10:19:11.412Z,95703.50
2022-07-29T10:24:14.866Z,95698.66
2022-07-29T10:29:16.896Z,95699.69
2022-07-29T10:34:31.706Z,95702.22
2022-07-29T10:40:30.737Z,95700.41
2022-07-29T10:45:32.565Z,95690.69
2022-07-29T10:51:01.474Z,95684.81
2022-07-29T10:56:23.539Z,95680.97
2022-07-29T11:01:37.062Z,95677.56
2022-07-29T11:07:13.737Z,95674.69
2022-07-29T11:12:43.313Z,95674.88
2022-07-29T11:18:01.441Z,95661.56
2022-07-29T11:23:19.638Z,95664.88
2022-07-29T11:28:25.495Z,95668.13
2022-07-29T11:33:54.431Z,95666.06
2022-07-29T11:39:37.204Z,95658.31
2022-07-29T11:44:57.676Z,95670.13
2022-07-29T11:50:02.225Z,95671.41
2022-07-29T11:55:09.872Z,95661.19
2022-07-29T12:00:14.666Z,95657.38
2022-07-29T12:05:39.698Z,95672.25
2022-07-29T12:10:51.739Z,95669.47
2022-07-29T12:15:55.845Z,95663.09
2022-07-29T12:21:06.225Z,95651.09
2022-07-29T12:26:10.931Z,95657.75
2022-07-29T12:31:44.101Z,95663.66
2022-07-29T12:36:47.421Z,95656.78
2022-07-29T12:41:52.928Z,95667.81
2022-07-29T12:47:08.546Z,95666.31
2022-07-29T12:52:26.059Z,95668.34
2022-07-29T12:57:28.451Z,95669.16
2022-07-29T13:02:31.629Z,95656.94
2022-07-29T13:07:54.690Z,95652.66
2022-07-29T13:13:11.174Z,95646.81
2022-07-29T13:18:29.929Z,95634.31
2022-07-29T13:23:31.518Z,95634.81
2022-07-29T13:28:40.891Z,95632.22
2022-07-29T13:33:45.988Z,95628.41
2022-07-29T13:38:47.579Z,95623.00
2022-07-29T13:43:50.099Z,95624.53
2022-07-29T13:48:52.020Z,95631.69
2022-07-29T13:53:57.614Z,95628.09
2022-07-29T13:59:08.289Z,95621.97
2022-07-29T14:04:11.248Z,95620.72
2022-07-29T14:09:17.781Z,95621.25
2022-07-29T14:14:20.506Z,95619.50
2022-07-29T14:19:23.379Z,95628.44
2022-07-29T14:24:25.576Z,95614.13
2022-07-29T14:29:37.213Z,95597.53
2022-07-29T14:34:40.569Z,95606.22
2022-07-29T14:39:43.217Z,95603.66
2022-07-29T14:44:45.243Z,95595.28
2022-07-29T14:49:51.523Z,95599.88
2022-07-29T14:54:53.392Z,95589.66
2022-07-29T14:59:55.718Z,95587.59
2022-07-29T15:04:57.685Z,95593.47
2022-07-29T15:09:59.774Z,95597.03
2022-07-29T15:15:01.617Z,95600.63
2022-07-29T15:20:05.780Z,95599.59
2022-07-29T15:25:07.807Z,95604.44
2022-07-29T15:30:10.522Z,95604.41
2022-07-29T15:35:29.728Z,95608.25
2022-07-29T15:40:31.739Z,95611.06
2022-07-29T15:45:40.992Z,95621.53
2022-07-29T15:50:42.842Z,95616.41
2022-07-29T15:55:48.807Z,95618.75
2022-07-29T16:00:50.628Z,95613.09
2022-07-29T16:05:52.406Z,95617.47
2022-07-29T16:10:54.031Z,95625.13
2022-07-29T16:16:02.091Z,95633.53
2022-07-29T16:21:04.854Z,95638.38
2022-07-29T16:26:07.066Z,95642.91
2022-07-29T16:31:09.323Z,95649.97
2022-07-29T16:36:11.111Z,95646.84
2022-07-29T16:41:15.143Z,95636.56
2022-07-29T16:46:18.780Z,95641.13
2022-07-29T16:51:27.844Z,95642.06
2022-07-29T16:56:34.478Z,95646.41
2022-07-29T17:01:39.912Z,95657.56
2022-07-29T17:06:42.518Z,95657.81
2022-07-29T17:11:52.882Z,95669.00
2022-07-29T17:17:01.370Z,95678.94
2022-07-29T17:22:11.757Z,95672.84
2022-07-29T17:27:22.682Z,95671.84
2022-07-29T17:32:24.888Z,95663.97
2022-07-29T17:37:28.845Z,95671.66
2022-07-29T17:42:30.639Z,95685.13
2022-07-29T17:47:40.402Z,95690.25
2022-07-29T17:52:42.456Z,95696.34
2022-07-29T17:57:44.111Z,95705.75
2022-07-29T18:02:46.148Z,95705.97
2022-07-29T18:07:47.762Z,95723.22
2022-07-29T18:12:49.451Z,95742.38
2022-07-29T18:17:56.725Z,95735.72
2022-07-29T18:23:01.186Z,95721.47
2022-07-29T18:28:08.847Z,95730.88
2022-07-29T18:33:22.009Z,95726.06
2022-07-29T18:38:24.012Z,95720.53
2022-07-29T18:43:43.171Z,95728.44
2022-07-29T18:48:53.629Z,95728.28
2022-07-29T18:53:59.425Z,95725.00
2022-07-29T18:59:04.925Z,95743.88
2022-07-29T19:04:06.429Z,95746.28
2022-07-29T19:09:15.558Z,95746.69
2022-07-29T19:14:19.258Z,95748.00
2022-07-29T19:19:23.867Z,95754.16
2022-07-29T19:24:25.390Z,95774.75
2022-07-29T19:29:27.487Z,95778.13
2022-07-29T19:34:31.293Z,95794.41
2022-07-29T19:39:35.267Z,95790.38
2022-07-29T19:44:54.583Z,95792.66
2022-07-29T19:49:56.231Z,95808.66
2022-07-29T19:55:07.608Z,95805.56
2022-07-29T20:00:11.611Z,95810.78
2022-07-29T20:05:13.292Z,95835.56
2022-07-29T20:10:20.693Z,95839.66
2022-07-29T20:15:26.877Z,95838.91
2022-07-29T20:20:29.916Z,95844.16
2022-07-29T20:25:31.542Z,95847.44
2022-07-29T20:30:38.584Z,95858.66
2022-07-29T20:35:40.951Z,95851.41
2022-07-29T20:40:42.570Z,95849.63
2022-07-29T20:45:46.757Z,95852.97
2022-07-29T20:50:49.942Z,95854.09
2022-07-29T20:55:51.606Z,95852.91
2022-07-29T21:00:53.155Z,95864.41
2022-07-29T21:05:57.274Z,95863.38
2022-07-29T21:10:58.860Z,95861.44
2022-07-29T21:16:14.835Z,95863.16
2022-07-29T21:21:20.220Z,95865.38
2022-07-29T21:26:24.188Z,95865.75
2022-07-29T21:31:29.695Z,95874.00
2022-07-29T21:36:48.277Z,95869.84
2022-07-29T21:42:07.929Z,95860.91
2022-07-29T21:47:11.946Z,95859.50
2022-07-29T21:52:18.584Z,95854.88
2022-07-29T21:57:26.547Z,95855.34
2022-07-29T22:02:30.735Z,95855.34
2022-07-29T22:07:54.711Z,95849.44
2022-07-29T22:12:56.514Z,95852.69
2022-07-29T22:18:01.157Z,95840.94
2022-07-29T22:23:02.725Z,95838.47
2022-07-29T22:28:06.687Z,95837.06
2022-07-29T22:33:08.194Z,95829.31
2022-07-29T22:38:13.193Z,95827.78
2022-07-29T22:43:16.815Z,95825.44
2022-07-29T22:48:19.930Z,95821.59
2022-07-29T22:53:22.067Z,95819.75
2022-07-29T22:58:23.611Z,95815.44
2022-07-29T23:03:31.186Z,95807.22
2022-07-29T23:08:36.222Z,95801.34
2022-07-29T23:13:40.188Z,95806.63
2022-07-29T23:18:48.826Z,95806.31
2022-07-29T23:23:58.599Z,95804.75
2022-07-29T23:29:00.221Z,95805.22
2022-07-29T23:34:02.400Z,95806.16
2022-07-29T23:39:04.116Z,95799.53
2022-07-29T23:44:07.714Z,95804.03
2022-07-29T23:49:13.878Z,95801.38
2022-07-29T23:54:20.280Z,95799.09
2022-07-29T23:59:21.854Z,95800.78
